Metar Cercanos

 

LEPA - Palma De Mallorc, Spain
Distance from station: ONO 38km
Actualización: Wed, 27-Jan-2021 3:00pm CET
Muy nuboso
Muy nuboso
 Viento del ONO
Viento: ONO 7 km/h
Temperatura: 20°C
Rocío: 12°C
Humedad: 60%
Barómetro: 1019 hPa
Clouds: Muy nuboso
Visibility: 10 km
Cloud details: Muy nuboso 1524 m
2021/01/27 14:00 LEPA 271400Z 30004KT 9999 BKN050 20/12 Q1019 NOSIG
LEMH - Mahon/Menorca Is, Spain
Distance from station: ENE 105km
Actualización: Wed, 27-Jan-2021 3:00pm CET
Few Clouds
Few Clouds
 Viento del NO
Viento: NO 13 km/h
Temperatura: 17°C
Rocío: 10°C
Humedad: 64%
Barómetro: 1019 hPa
Clouds: Few Clouds
Visibility: 10 km
Cloud details: Few Clouds 914 m
2021/01/27 14:00 LEMH 271400Z 32007KT 270V360 9999 FEW030 17/10 Q1019
 
LEIB - Ibiza/Es Codola, Spain
Distance from station: OSO 165km
Actualización: Wed, 27-Jan-2021 3:00pm CET
Despejado
Despejado
 Viento del ONO
Viento: ONO 20 km/h
Temperatura: 23°C
Rocío: 12°C
Humedad: 50%
Barómetro: 1020 hPa
Resumen: Despejado
Visibility: greater than 10 km
2021/01/27 14:00 LEIB 271400Z 29011KT 260V320 CAVOK 23/12 Q1020 NOSIG
LEBL - Barcelona Airpor, Spain
Distance from station: NNO 225km
Actualización: Wed, 27-Jan-2021 3:00pm CET
Few Clouds
Few Clouds
 Viento del ESE
Viento: ESE 9 km/h
Temperatura: 14°C
Rocío: 7°C
Humedad: 63%
Barómetro: 1019 hPa
Clouds: Few Clouds
Visibility: 10 km
Cloud details: Few Clouds 610 m
2021/01/27 14:00 LEBL 271400Z 11005KT 9999 FEW020 14/07 Q1019 NOSIG
 
LEVC - Valencia (civ/Mi, Spain
Distance from station: NO 188km
Actualización: Wed, 27-Jan-2021 3:00pm CET
Few Clouds
Few Clouds
 Viento del ONO
Viento: ONO 20 km/h
Temperatura: 25°C
Rocío: 10°C
Humedad: 39%
Barómetro: 1020 hPa
Clouds: Few Clouds
Visibility: 10 km
Cloud details: Few Clouds 1372 m
2021/01/27 14:00 LEVC 271400Z 29011KT 250V340 9999 FEW045 25/10 Q1020 NOSIG
LEGE - Gerona/Costa Bra, Spain
Distance from station: N 276km
Actualización: Wed, 27-Jan-2021 3:00pm CET
Few Clouds
Few Clouds
 Viento del OSO
Viento: OSO 6 km/h
Temperatura: 15°C
Rocío: 3°C
Humedad: 45%
Barómetro: 1019 hPa
Clouds: Few Clouds
Visibility: 10 km
Cloud details: Few Clouds 1524 m
2021/01/27 14:00 LEGE 271400Z 24003KT 200V280 9999 FEW050 15/03 Q1019
 
LEAL - Alicante/El Alte, Spain
Distance from station: OSO 344km
Actualización: Wed, 27-Jan-2021 3:00pm CET
Few Clouds
Few Clouds
 Viento del NO
Viento: NO 31 km/h
Temperatura: 24°C
Rocío: 11°C
Humedad: 44%
Barómetro: 1021 hPa
Clouds: Few Clouds
Visibility: 10 km
Cloud details: Few Clouds 1829 m
2021/01/27 14:00 LEAL 271400Z 31017KT 9999 FEW060 24/11 Q1021 NOSIG
LEAM - Almeria Airport, Spain
Distance from station: SSO 56km
Actualización: Wed, 27-Jan-2021 3:00pm CET
Few Clouds
Few Clouds
 Viento del SSE
Viento: SSE 6 km/h
Temperatura: 18°C
Rocío: 13°C
Humedad: 73%
Barómetro: 1023 hPa
Clouds: Few Clouds
Visibility: 10 km
Cloud details: Few Clouds 1524 m
2021/01/27 14:00 LEAM 271400Z 15003KT 100V200 9999 FEW050 18/13 Q1023
 
LEZG - Zaragoza (mil/Ci, Spain
Distance from station: NO 431km
Actualización: Wed, 27-Jan-2021 3:00pm CET
Few Clouds
Few Clouds
 Viento del ONO
Viento: ONO 41 km/h
Temperatura: 19°C
Rocío: 12°C
Humedad: 64%
Barómetro: 1022 hPa
Clouds: Few Clouds
Visibility: 10 km
Cloud details: Few Clouds 1524 m
2021/01/27 14:00 LEZG 271400Z 30022KT 9999 FEW050 19/12 Q1022
LEMD - Madrid/Barajas, Spain
Distance from station: ONO 234km
Actualización: Wed, 27-Jan-2021 3:00pm CET
Despejado
Despejado
 Viento del NNE
Viento: NNE 4 km/h
Temperatura: 18°C
Rocío: 11°C
Humedad: 64%
Barómetro: 1025 hPa
Resumen: Despejado
Visibility: greater than 10 km
2021/01/27 14:00 LEMD 271400Z 03002KT CAVOK 18/11 Q1025 NOSIG
 
LEGR - Granada Airport, Spain
Distance from station: OSO 62km
Actualización: Wed, 27-Jan-2021 3:00pm CET
Few Clouds
Few Clouds
 Viento del calm
Viento: Calma
Temperatura: 19°C
Rocío: 13°C
Humedad: 68%
Barómetro: 1025 hPa
Clouds: Few Clouds
Visibility: 10 km
Cloud details: Few Clouds 610 m
2021/01/27 14:00 LEGR 271400Z 00000KT 9999 FEW020 19/13 Q1025
LEMG - Malaga (civ/Mil), Spain
Distance from station: OSO 227km
Actualización: Wed, 27-Jan-2021 3:00pm CET
Few Clouds
Few Clouds
 Viento del O
Viento: O 26 km/h, Racha: 44 km/h
Temperatura: 23°C
Rocío: 14°C
Humedad: 57%
Barómetro: 1023 hPa
Clouds: Few Clouds
Visibility: 10 km
Cloud details: Few Clouds 914 m
2021/01/27 14:00 LEMG 271400Z 26014G24KT 220V290 9999 FEW030 23/14 Q1023 NOSIG
 
LEZL - Sevilla (civ/Mil, Spain
Distance from station: S 318km
Actualización: Wed, 27-Jan-2021 3:00pm CET
Few Clouds
Few Clouds
 Viento del NNE
Viento: NNE 4 km/h
Temperatura: 20°C
Rocío: 15°C
Humedad: 73%
Barómetro: 1026 hPa
Clouds: Few Clouds
Visibility: 10 km
Cloud details: Few Clouds 610 m
2021/01/27 14:00 LEZL 271400Z 03002KT 9999 FEW020 20/15 Q1026 NOSIG
LEVT - Vitoria, Spain
Distance from station: NO 226km
Actualización: Wed, 27-Jan-2021 3:00pm CET
Parcialmente nuboso
Parcialmente nuboso
 Viento del NO
Viento: NO 6 km/h
Temperatura: 15°C
Rocío: 13°C
Humedad: 88%
Barómetro: 1024 hPa
Clouds: Parcialmente nuboso
Visibility: 10 km
Cloud details: Few Clouds 427 m
Parcialmente nuboso 762 m
2021/01/27 14:00 LEVT 271400Z 31003KT 280V340 9999 FEW014 SCT025 15/13 Q1024
 
LEBB - Bilbao/Sondica, Spain
Distance from station: NNO 235km
Actualización: Wed, 27-Jan-2021 3:00pm CET
Parcialmente nuboso
Parcialmente nuboso
 Viento del varies
Viento: varies 2 km/h
Temperatura: 17°C
Rocío: 15°C
Humedad: 88%
Barómetro: 1023 hPa
Clouds: Parcialmente nuboso
Visibility: 10 km
Cloud details: Few Clouds 244 m
Parcialmente nuboso 914 m
2021/01/27 14:00 LEBB 271400Z VRB01KT 9999 FEW008 SCT030 17/15 Q1023 TEMPO 3000 -RA
LESO - San Sebastian/Fu, Spain
Distance from station: N 231km
Actualización: Wed, 27-Jan-2021 3:00pm CET
Cubierto
Cubierto
 Viento del varies
Viento: varies 9 km/h
Temperatura: 14°C
Rocío: 13°C
Humedad: 94%
Barómetro: 1023 hPa
Clouds: Cubierto
Visibility: 10 km
Cloud details: Few Clouds 244 m
Cubierto 457 m
2021/01/27 14:00 LESO 271400Z VRB05KT 9999 FEW008 OVC015 14/13 Q1023
 
LEVD - Valladolid(Mil/C, Spain
Distance from station: ONO 239km
Actualización: Wed, 27-Jan-2021 3:00pm CET
Muy nuboso
Muy nuboso
 Viento del O
Viento: O 17 km/h
Temperatura: 14°C
Rocío: 11°C
Humedad: 82%
Barómetro: 1026 hPa
Clouds: Muy nuboso
Visibility: 10 km
Cloud details: Muy nuboso 244 m
2021/01/27 14:00 LEVD 271400Z 26009KT 230V290 9999 BKN008 14/11 Q1026
LESA - Salamanca (civ/M, Spain
Distance from station: ONO 349km
Actualización: Wed, 27-Jan-2021 3:00pm CET
Few Clouds
Few Clouds
 Viento del ONO
Viento: ONO 11 km/h
Temperatura: 16°C
Rocío: 11°C
Humedad: 72%
Barómetro: 1027 hPa
Clouds: Few Clouds
Visibility: 10 km
Cloud details: Few Clouds 457 m
2021/01/27 14:00 LESA 271400Z 29006KT 250V320 9999 FEW015 16/11 Q1027
 
LEXJ - Santander/Paraya, Spain
Distance from station: NNO 247km
Actualización: Wed, 27-Jan-2021 3:00pm CET
Few Clouds
Few Clouds
 Viento del O
Viento: O 13 km/h
Temperatura: 19°C
Rocío: 16°C
Humedad: 83%
Barómetro: 1023 hPa
Clouds: Few Clouds
Visibility: 10 km
Cloud details: Few Clouds 610 m
2021/01/27 14:00 LEXJ 271400Z 26007KT 9999 FEW020 19/16 Q1023
LEAS - Asturias/Aviles, Spain
Distance from station: NO 214km
Actualización: Wed, 27-Jan-2021 3:00pm CET
Muy nuboso
Muy nuboso
 Viento del NO
Viento: NO 20 km/h
Temperatura: 18°C
Rocío: 13°C
Humedad: 73%
Barómetro: 1023 hPa
Clouds: Muy nuboso
Visibility: 10 km
Cloud details: Muy nuboso 1585 m
2021/01/27 14:00 LEAS 271400Z 31011KT 9999 BKN052 18/13 Q1023 NOSIG
 
LECO - La Coruna/Alvedr, Spain
Distance from station: ONO 222km
Actualización: Wed, 27-Jan-2021 3:00pm CET
Muy nuboso
Muy nuboso
 Viento del SSO
Viento: SSO 13 km/h
Temperatura: 17°C
Rocío: 14°C
Humedad: 83%
Barómetro: 1024 hPa
Clouds: Muy nuboso
Visibility: 10 km
Cloud details: Few Clouds 305 m
Muy nuboso 732 m
2021/01/27 14:00 LECO 271400Z 20007KT 160V230 9999 FEW010 BKN024 17/14 Q1024 NOSIG
LEVX - Vigo/Peinador, Spain
Distance from station: O 214km
Actualización: Wed, 27-Jan-2021 3:00pm CET
Patches of fog, Lluvia débil, Muy nuboso
Patches of fog, Lluvia débil, Muy nuboso
 Viento del SO
Viento: SO 9 km/h
Temperatura: 14°C
Rocío: 14°C
Humedad: 100%
Barómetro: 1027 hPa
Resumen: Patches of fog, Lluvia débil
Clouds: Muy nuboso
Visibility: 3 km
Cloud details: Muy nuboso 122 m
Muy nuboso 244 m
2021/01/27 14:00 LEVX 271400Z 23005KT 200V270 3000 0500E BCFG -RA BKN004 BKN008 14/14 Q1027 TEMPO 1500 BCFG